sensor_id;sensor_type;location;lat;lon;timestamp;P1;durP1;ratioP1;P2;durP2;ratioP2
57441;SDS011;43284;47.042;15.498;2023-04-01T00:00:58;6.00;;;2.58;;
57441;SDS011;43284;47.042;15.498;2023-04-01T00:03:26;5.72;;;2.60;;
57441;SDS011;43284;47.042;15.498;2023-04-01T00:05:52;5.10;;;2.80;;
57441;SDS011;43284;47.042;15.498;2023-04-01T00:08:22;4.78;;;3.00;;
57441;SDS011;43284;47.042;15.498;2023-04-01T00:10:48;4.35;;;2.45;;
57441;SDS011;43284;47.042;15.498;2023-04-01T00:13:14;5.47;;;2.00;;
57441;SDS011;43284;47.042;15.498;2023-04-01T00:15:40;2.92;;;1.65;;
57441;SDS011;43284;47.042;15.498;2023-04-01T00:18:07;2.13;;;1.67;;
57441;SDS011;43284;47.042;15.498;2023-04-01T00:20:33;2.05;;;1.58;;
57441;SDS011;43284;47.042;15.498;2023-04-01T00:22:59;7.72;;;1.95;;
57441;SDS011;43284;47.042;15.498;2023-04-01T00:25:25;2.28;;;1.52;;
57441;SDS011;43284;47.042;15.498;2023-04-01T00:27:51;4.13;;;2.00;;
57441;SDS011;43284;47.042;15.498;2023-04-01T00:30:17;4.07;;;1.90;;
57441;SDS011;43284;47.042;15.498;2023-04-01T00:32:43;4.55;;;2.08;;
57441;SDS011;43284;47.042;15.498;2023-04-01T00:35:08;2.83;;;1.75;;
57441;SDS011;43284;47.042;15.498;2023-04-01T00:37:35;2.58;;;1.65;;
57441;SDS011;43284;47.042;15.498;2023-04-01T00:40:03;3.20;;;2.00;;
57441;SDS011;43284;47.042;15.498;2023-04-01T00:42:30;1.77;;;1.63;;
57441;SDS011;43284;47.042;15.498;2023-04-01T00:44:56;3.47;;;2.00;;
57441;SDS011;43284;47.042;15.498;2023-04-01T00:47:22;2.75;;;1.80;;
57441;SDS011;43284;47.042;15.498;2023-04-01T00:49:51;4.20;;;2.00;;
57441;SDS011;43284;47.042;15.498;2023-04-01T00:52:20;3.63;;;1.90;;
57441;SDS011;43284;47.042;15.498;2023-04-01T00:54:49;3.10;;;2.10;;
57441;SDS011;43284;47.042;15.498;2023-04-01T00:57:19;4.68;;;2.17;;
57441;SDS011;43284;47.042;15.498;2023-04-01T00:59:56;2.80;;;2.03;;
57441;SDS011;43284;47.042;15.498;2023-04-01T01:02:23;2.63;;;1.80;;
57441;SDS011;43284;47.042;15.498;2023-04-01T01:04:48;6.00;;;1.98;;
57441;SDS011;43284;47.042;15.498;2023-04-01T01:15:38;2.63;;;1.50;;
57441;SDS011;43284;47.042;15.498;2023-04-01T01:21:09;6.25;;;2.13;;
57441;SDS011;43284;47.042;15.498;2023-04-01T01:37:09;1.90;;;1.58;;
57441;SDS011;43284;47.042;15.498;2023-04-01T01:39:38;1.92;;;1.45;;
57441;SDS011;43284;47.042;15.498;2023-04-01T01:42:07;6.15;;;2.08;;
57441;SDS011;43284;47.042;15.498;2023-04-01T01:44:37;2.70;;;1.80;;
57441;SDS011;43284;47.042;15.498;2023-04-01T01:47:04;3.60;;;1.58;;
57441;SDS011;43284;47.042;15.498;2023-04-01T01:49:31;7.63;;;2.90;;
57441;SDS011;43284;47.042;15.498;2023-04-01T01:51:58;3.45;;;2.50;;
57441;SDS011;43284;47.042;15.498;2023-04-01T01:54:24;4.47;;;2.55;;
57441;SDS011;43284;47.042;15.498;2023-04-01T01:56:51;3.65;;;2.28;;
57441;SDS011;43284;47.042;15.498;2023-04-01T01:59:20;2.92;;;2.17;;
57441;SDS011;43284;47.042;15.498;2023-04-01T02:01:50;2.97;;;1.83;;
57441;SDS011;43284;47.042;15.498;2023-04-01T02:04:18;4.53;;;2.20;;
57441;SDS011;43284;47.042;15.498;2023-04-01T02:07:03;3.75;;;2.17;;
57441;SDS011;43284;47.042;15.498;2023-04-01T02:09:36;3.33;;;2.25;;
57441;SDS011;43284;47.042;15.498;2023-04-01T02:12:05;3.20;;;2.42;;
57441;SDS011;43284;47.042;15.498;2023-04-01T02:14:41;5.82;;;3.00;;
57441;SDS011;43284;47.042;15.498;2023-04-01T02:17:16;5.07;;;2.28;;
57441;SDS011;43284;47.042;15.498;2023-04-01T02:19:48;2.35;;;1.95;;
57441;SDS011;43284;47.042;15.498;2023-04-01T02:22:21;2.60;;;1.83;;
57441;SDS011;43284;47.042;15.498;2023-04-01T02:24:50;5.85;;;2.58;;
57441;SDS011;43284;47.042;15.498;2023-04-01T02:27:19;4.60;;;2.50;;
57441;SDS011;43284;47.042;15.498;2023-04-01T02:29:45;5.05;;;2.40;;
57441;SDS011;43284;47.042;15.498;2023-04-01T02:32:11;4.85;;;2.67;;
57441;SDS011;43284;47.042;15.498;2023-04-01T02:34:39;4.15;;;2.33;;
57441;SDS011;43284;47.042;15.498;2023-04-01T02:37:05;3.75;;;2.20;;
57441;SDS011;43284;47.042;15.498;2023-04-01T02:39:31;5.57;;;2.38;;
57441;SDS011;43284;47.042;15.498;2023-04-01T02:41:57;3.70;;;2.42;;
57441;SDS011;43284;47.042;15.498;2023-04-01T02:44:23;6.60;;;2.47;;
57441;SDS011;43284;47.042;15.498;2023-04-01T02:46:49;2.95;;;2.03;;
57441;SDS011;43284;47.042;15.498;2023-04-01T02:49:15;3.72;;;2.15;;
57441;SDS011;43284;47.042;15.498;2023-04-01T02:51:40;3.78;;;2.28;;
57441;SDS011;43284;47.042;15.498;2023-04-01T02:54:06;5.10;;;2.05;;
57441;SDS011;43284;47.042;15.498;2023-04-01T02:56:31;3.40;;;2.17;;
57441;SDS011;43284;47.042;15.498;2023-04-01T02:58:57;3.08;;;2.40;;
57441;SDS011;43284;47.042;15.498;2023-04-01T03:01:22;3.50;;;2.42;;
57441;SDS011;43284;47.042;15.498;2023-04-01T03:03:48;3.70;;;2.15;;
57441;SDS011;43284;47.042;15.498;2023-04-01T03:06:14;4.07;;;2.33;;
57441;SDS011;43284;47.042;15.498;2023-04-01T03:08:41;5.57;;;3.03;;
57441;SDS011;43284;47.042;15.498;2023-04-01T03:11:07;3.03;;;2.00;;
57441;SDS011;43284;47.042;15.498;2023-04-01T03:13:33;4.22;;;2.70;;
57441;SDS011;43284;47.042;15.498;2023-04-01T03:15:59;4.05;;;2.60;;
57441;SDS011;43284;47.042;15.498;2023-04-01T03:18:25;5.43;;;3.08;;
57441;SDS011;43284;47.042;15.498;2023-04-01T03:20:51;4.65;;;2.50;;
57441;SDS011;43284;47.042;15.498;2023-04-01T03:23:17;4.93;;;2.60;;
57441;SDS011;43284;47.042;15.498;2023-04-01T03:25:44;3.20;;;2.20;;
57441;SDS011;43284;47.042;15.498;2023-04-01T03:28:10;3.15;;;2.10;;
57441;SDS011;43284;47.042;15.498;2023-04-01T03:30:37;4.28;;;1.95;;
57441;SDS011;43284;47.042;15.498;2023-04-01T03:33:03;4.40;;;2.10;;
57441;SDS011;43284;47.042;15.498;2023-04-01T03:35:28;3.47;;;2.03;;
57441;SDS011;43284;47.042;15.498;2023-04-01T03:37:54;6.13;;;2.53;;
57441;SDS011;43284;47.042;15.498;2023-04-01T03:40:20;9.50;;;5.28;;
57441;SDS011;43284;47.042;15.498;2023-04-01T03:42:46;14.02;;;5.03;;
57441;SDS011;43284;47.042;15.498;2023-04-01T03:45:12;9.68;;;4.90;;
57441;SDS011;43284;47.042;15.498;2023-04-01T03:47:38;4.88;;;2.75;;
57441;SDS011;43284;47.042;15.498;2023-04-01T03:50:05;6.97;;;2.33;;
57441;SDS011;43284;47.042;15.498;2023-04-01T03:52:32;4.45;;;2.15;;
57441;SDS011;43284;47.042;15.498;2023-04-01T03:54:58;5.18;;;3.00;;
57441;SDS011;43284;47.042;15.498;2023-04-01T03:57:24;5.90;;;2.95;;
57441;SDS011;43284;47.042;15.498;2023-04-01T03:59:49;3.15;;;1.92;;
57441;SDS011;43284;47.042;15.498;2023-04-01T04:02:15;4.75;;;2.80;;
57441;SDS011;43284;47.042;15.498;2023-04-01T04:04:41;4.10;;;2.45;;
57441;SDS011;43284;47.042;15.498;2023-04-01T04:07:06;6.45;;;2.75;;
57441;SDS011;43284;47.042;15.498;2023-04-01T04:09:32;4.57;;;2.42;;
57441;SDS011;43284;47.042;15.498;2023-04-01T04:11:58;3.55;;;2.35;;
57441;SDS011;43284;47.042;15.498;2023-04-01T04:14:24;3.83;;;2.55;;
57441;SDS011;43284;47.042;15.498;2023-04-01T04:16:49;4.13;;;2.40;;
57441;SDS011;43284;47.042;15.498;2023-04-01T04:19:15;4.40;;;2.85;;
57441;SDS011;43284;47.042;15.498;2023-04-01T04:21:41;6.18;;;1.77;;
57441;SDS011;43284;47.042;15.498;2023-04-01T04:24:06;3.33;;;1.90;;
57441;SDS011;43284;47.042;15.498;2023-04-01T04:26:32;5.45;;;3.20;;
57441;SDS011;43284;47.042;15.498;2023-04-01T04:28:58;4.03;;;2.38;;
57441;SDS011;43284;47.042;15.498;2023-04-01T04:31:24;4.22;;;2.40;;
57441;SDS011;43284;47.042;15.498;2023-04-01T04:33:51;3.60;;;1.95;;
57441;SDS011;43284;47.042;15.498;2023-04-01T04:36:18;3.88;;;2.20;;
57441;SDS011;43284;47.042;15.498;2023-04-01T04:38:44;5.72;;;2.70;;
57441;SDS011;43284;47.042;15.498;2023-04-01T04:41:10;6.55;;;3.50;;
57441;SDS011;43284;47.042;15.498;2023-04-01T04:43:38;5.47;;;3.40;;
57441;SDS011;43284;47.042;15.498;2023-04-01T04:46:05;6.30;;;3.65;;
57441;SDS011;43284;47.042;15.498;2023-04-01T04:48:32;6.50;;;3.65;;
57441;SDS011;43284;47.042;15.498;2023-04-01T04:50:57;8.70;;;4.22;;
57441;SDS011;43284;47.042;15.498;2023-04-01T04:53:23;8.38;;;4.90;;
57441;SDS011;43284;47.042;15.498;2023-04-01T04:55:50;8.25;;;4.70;;
57441;SDS011;43284;47.042;15.498;2023-04-01T04:58:16;8.32;;;5.22;;
57441;SDS011;43284;47.042;15.498;2023-04-01T05:00:42;9.38;;;4.15;;
57441;SDS011;43284;47.042;15.498;2023-04-01T05:03:08;5.32;;;3.65;;
57441;SDS011;43284;47.042;15.498;2023-04-01T05:05:34;5.63;;;3.17;;
57441;SDS011;43284;47.042;15.498;2023-04-01T05:08:00;5.30;;;3.50;;
57441;SDS011;43284;47.042;15.498;2023-04-01T05:10:26;8.23;;;4.38;;
57441;SDS011;43284;47.042;15.498;2023-04-01T05:12:52;7.55;;;4.85;;
57441;SDS011;43284;47.042;15.498;2023-04-01T05:15:17;7.03;;;4.30;;
57441;SDS011;43284;47.042;15.498;2023-04-01T05:17:43;6.97;;;3.90;;
57441;SDS011;43284;47.042;15.498;2023-04-01T05:20:11;9.02;;;4.32;;
57441;SDS011;43284;47.042;15.498;2023-04-01T05:22:37;9.93;;;4.88;;
57441;SDS011;43284;47.042;15.498;2023-04-01T05:25:03;6.03;;;3.97;;
57441;SDS011;43284;47.042;15.498;2023-04-01T05:27:28;7.20;;;3.70;;
57441;SDS011;43284;47.042;15.498;2023-04-01T05:29:54;5.43;;;3.65;;
57441;SDS011;43284;47.042;15.498;2023-04-01T05:32:19;10.60;;;4.30;;
57441;SDS011;43284;47.042;15.498;2023-04-01T05:34:45;7.95;;;4.68;;
57441;SDS011;43284;47.042;15.498;2023-04-01T05:37:10;8.38;;;4.13;;
57441;SDS011;43284;47.042;15.498;2023-04-01T05:39:36;4.57;;;3.40;;
57441;SDS011;43284;47.042;15.498;2023-04-01T05:42:03;5.13;;;3.10;;
57441;SDS011;43284;47.042;15.498;2023-04-01T05:44:30;5.95;;;3.60;;
57441;SDS011;43284;47.042;15.498;2023-04-01T05:46:56;10.05;;;3.67;;
57441;SDS011;43284;47.042;15.498;2023-04-01T05:49:22;5.10;;;3.13;;
57441;SDS011;43284;47.042;15.498;2023-04-01T05:51:47;11.00;;;4.30;;
57441;SDS011;43284;47.042;15.498;2023-04-01T05:54:13;6.07;;;3.80;;
57441;SDS011;43284;47.042;15.498;2023-04-01T05:56:38;7.68;;;3.85;;
57441;SDS011;43284;47.042;15.498;2023-04-01T05:59:04;7.10;;;3.50;;
57441;SDS011;43284;47.042;15.498;2023-04-01T06:01:29;6.47;;;3.78;;
57441;SDS011;43284;47.042;15.498;2023-04-01T06:03:55;7.03;;;4.18;;
57441;SDS011;43284;47.042;15.498;2023-04-01T06:06:24;8.00;;;4.55;;
57441;SDS011;43284;47.042;15.498;2023-04-01T06:08:54;8.55;;;4.82;;
57441;SDS011;43284;47.042;15.498;2023-04-01T06:11:24;11.77;;;5.63;;
57441;SDS011;43284;47.042;15.498;2023-04-01T06:14:33;12.40;;;6.47;;
57441;SDS011;43284;47.042;15.498;2023-04-01T06:19:32;9.80;;;5.63;;
57441;SDS011;43284;47.042;15.498;2023-04-01T06:28:03;11.27;;;5.30;;
57441;SDS011;43284;47.042;15.498;2023-04-01T06:36:32;9.88;;;4.90;;
57441;SDS011;43284;47.042;15.498;2023-04-01T06:47:03;11.55;;;5.13;;
57441;SDS011;43284;47.042;15.498;2023-04-01T06:55:00;9.75;;;5.53;;
57441;SDS011;43284;47.042;15.498;2023-04-01T06:57:47;11.18;;;5.70;;
57441;SDS011;43284;47.042;15.498;2023-04-01T07:03:29;8.20;;;5.25;;
57441;SDS011;43284;47.042;15.498;2023-04-01T07:06:13;11.93;;;6.43;;
57441;SDS011;43284;47.042;15.498;2023-04-01T07:08:46;10.65;;;5.13;;
57441;SDS011;43284;47.042;15.498;2023-04-01T07:11:22;10.18;;;5.53;;
57441;SDS011;43284;47.042;15.498;2023-04-01T07:13:59;7.10;;;4.10;;
57441;SDS011;43284;47.042;15.498;2023-04-01T07:16:37;12.40;;;5.10;;
57441;SDS011;43284;47.042;15.498;2023-04-01T07:19:31;9.40;;;4.85;;
57441;SDS011;43284;47.042;15.498;2023-04-01T07:22:28;10.73;;;5.00;;
57441;SDS011;43284;47.042;15.498;2023-04-01T07:24:57;7.07;;;4.30;;
57441;SDS011;43284;47.042;15.498;2023-04-01T07:27:30;6.68;;;4.00;;
57441;SDS011;43284;47.042;15.498;2023-04-01T07:29:56;6.70;;;4.28;;
57441;SDS011;43284;47.042;15.498;2023-04-01T07:49:25;3.80;;;2.58;;
57441;SDS011;43284;47.042;15.498;2023-04-01T07:57:03;6.43;;;2.22;;
57441;SDS011;43284;47.042;15.498;2023-04-01T07:59:40;8.88;;;3.00;;
57441;SDS011;43284;47.042;15.498;2023-04-01T08:18:39;3.58;;;2.80;;
57441;SDS011;43284;47.042;15.498;2023-04-01T08:21:10;4.15;;;2.40;;
57441;SDS011;43284;47.042;15.498;2023-04-01T08:23:49;3.08;;;2.20;;
57441;SDS011;43284;47.042;15.498;2023-04-01T08:28:57;4.90;;;2.55;;
57441;SDS011;43284;47.042;15.498;2023-04-01T08:33:59;3.63;;;2.20;;
57441;SDS011;43284;47.042;15.498;2023-04-01T08:36:34;3.55;;;2.13;;
57441;SDS011;43284;47.042;15.498;2023-04-01T08:58:59;2.65;;;1.42;;
57441;SDS011;43284;47.042;15.498;2023-04-01T09:01:46;6.30;;;1.30;;
57441;SDS011;43284;47.042;15.498;2023-04-01T09:16:05;2.50;;;1.70;;
57441;SDS011;43284;47.042;15.498;2023-04-01T09:21:31;2.13;;;1.50;;
57441;SDS011;43284;47.042;15.498;2023-04-01T09:38:30;1.70;;;1.25;;
57441;SDS011;43284;47.042;15.498;2023-04-01T09:41:30;5.22;;;1.42;;
57441;SDS011;43284;47.042;15.498;2023-04-01T09:44:22;1.45;;;1.02;;
57441;SDS011;43284;47.042;15.498;2023-04-01T09:49:38;1.95;;;1.00;;
57441;SDS011;43284;47.042;15.498;2023-04-01T10:07:58;1.13;;;0.75;;
57441;SDS011;43284;47.042;15.498;2023-04-01T10:10:38;0.68;;;0.63;;
57441;SDS011;43284;47.042;15.498;2023-04-01T10:16:32;1.75;;;0.60;;
57441;SDS011;43284;47.042;15.498;2023-04-01T10:24:46;2.38;;;1.10;;
57441;SDS011;43284;47.042;15.498;2023-04-01T10:43:44;0.30;;;0.30;;
57441;SDS011;43284;47.042;15.498;2023-04-01T10:46:21;0.43;;;0.40;;
57441;SDS011;43284;47.042;15.498;2023-04-01T11:07:55;0.32;;;0.30;;
57441;SDS011;43284;47.042;15.498;2023-04-01T11:13:34;0.28;;;0.22;;
57441;SDS011;43284;47.042;15.498;2023-04-01T11:45:07;0.57;;;0.57;;
57441;SDS011;43284;47.042;15.498;2023-04-01T11:48:22;0.10;;;0.10;;
57441;SDS011;43284;47.042;15.498;2023-04-01T12:05:13;0.10;;;0.10;;
57441;SDS011;43284;47.042;15.498;2023-04-01T12:07:50;0.10;;;0.10;;
57441;SDS011;43284;47.042;15.498;2023-04-01T12:11:07;0.00;;;0.00;;
57441;SDS011;43284;47.042;15.498;2023-04-01T12:13:40;0.00;;;0.00;;
57441;SDS011;43284;47.042;15.498;2023-04-01T12:21:52;0.10;;;0.10;;
57441;SDS011;43284;47.042;15.498;2023-04-01T12:29:48;0.28;;;0.10;;
57441;SDS011;43284;47.042;15.498;2023-04-01T12:32:17;0.80;;;0.10;;
57441;SDS011;43284;47.042;15.498;2023-04-01T12:40:23;0.10;;;0.10;;
57441;SDS011;43284;47.042;15.498;2023-04-01T12:43:11;0.20;;;0.10;;
57441;SDS011;43284;47.042;15.498;2023-04-01T12:59:47;26.77;;;6.78;;
57441;SDS011;43284;47.042;15.498;2023-04-01T13:11:09;10.25;;;3.35;;
57441;SDS011;43284;47.042;15.498;2023-04-01T13:16:24;4.55;;;1.85;;
57441;SDS011;43284;47.042;15.498;2023-04-01T13:19:08;3.30;;;1.15;;
57441;SDS011;43284;47.042;15.498;2023-04-01T13:22:07;2.53;;;0.95;;
57441;SDS011;43284;47.042;15.498;2023-04-01T13:27:28;2.28;;;0.40;;
57441;SDS011;43284;47.042;15.498;2023-04-01T13:30:07;0.35;;;0.32;;
57441;SDS011;43284;47.042;15.498;2023-04-01T13:33:01;0.52;;;0.30;;
57441;SDS011;43284;47.042;15.498;2023-04-01T13:40:45;0.10;;;0.10;;
57441;SDS011;43284;47.042;15.498;2023-04-01T13:43:24;0.40;;;0.30;;
57441;SDS011;43284;47.042;15.498;2023-04-01T13:54:36;3.72;;;0.47;;
57441;SDS011;43284;47.042;15.498;2023-04-01T14:16:47;1.27;;;0.30;;
57441;SDS011;43284;47.042;15.498;2023-04-01T14:22:27;0.63;;;0.20;;
57441;SDS011;43284;47.042;15.498;2023-04-01T14:37:05;0.77;;;0.43;;
57441;SDS011;43284;47.042;15.498;2023-04-01T14:48:17;0.80;;;0.63;;
57441;SDS011;43284;47.042;15.498;2023-04-01T14:50:57;0.60;;;0.37;;
57441;SDS011;43284;47.042;15.498;2023-04-01T14:53:33;0.60;;;0.55;;
57441;SDS011;43284;47.042;15.498;2023-04-01T14:56:04;1.63;;;0.57;;
57441;SDS011;43284;47.042;15.498;2023-04-01T15:04:25;2.13;;;0.43;;
57441;SDS011;43284;47.042;15.498;2023-04-01T15:38:51;1.60;;;0.35;;
57441;SDS011;43284;47.042;15.498;2023-04-01T15:41:29;0.10;;;0.10;;
57441;SDS011;43284;47.042;15.498;2023-04-01T15:50:14;0.28;;;0.22;;
57441;SDS011;43284;47.042;15.498;2023-04-01T15:56:16;0.20;;;0.20;;
57441;SDS011;43284;47.042;15.498;2023-04-01T16:02:13;0.10;;;0.08;;
57441;SDS011;43284;47.042;15.498;2023-04-01T16:21:49;0.20;;;0.10;;
57441;SDS011;43284;47.042;15.498;2023-04-01T16:24:29;0.20;;;0.20;;
57441;SDS011;43284;47.042;15.498;2023-04-01T16:30:48;0.50;;;0.17;;
57441;SDS011;43284;47.042;15.498;2023-04-01T16:36:21;0.50;;;0.47;;
57441;SDS011;43284;47.042;15.498;2023-04-01T16:39:10;0.68;;;0.43;;
57441;SDS011;43284;47.042;15.498;2023-04-01T16:41:37;0.60;;;0.32;;
57441;SDS011;43284;47.042;15.498;2023-04-01T16:44:23;0.80;;;0.40;;
57441;SDS011;43284;47.042;15.498;2023-04-01T16:46:51;0.25;;;0.20;;
57441;SDS011;43284;47.042;15.498;2023-04-01T16:49:36;2.50;;;0.43;;
57441;SDS011;43284;47.042;15.498;2023-04-01T16:54:51;3.28;;;1.45;;
57441;SDS011;43284;47.042;15.498;2023-04-01T16:57:45;3.70;;;1.20;;
57441;SDS011;43284;47.042;15.498;2023-04-01T17:02:58;0.30;;;0.30;;
57441;SDS011;43284;47.042;15.498;2023-04-01T17:08:08;0.30;;;0.30;;
57441;SDS011;43284;47.042;15.498;2023-04-01T17:11:04;1.13;;;0.47;;
57441;SDS011;43284;47.042;15.498;2023-04-01T17:13:34;0.68;;;0.50;;
57441;SDS011;43284;47.042;15.498;2023-04-01T17:16:20;3.35;;;0.60;;
57441;SDS011;43284;47.042;15.498;2023-04-01T17:27:20;1.63;;;0.70;;
57441;SDS011;43284;47.042;15.498;2023-04-01T17:32:47;1.73;;;0.80;;
57441;SDS011;43284;47.042;15.498;2023-04-01T17:40:52;1.50;;;0.57;;
57441;SDS011;43284;47.042;15.498;2023-04-01T17:46:02;1.02;;;0.70;;
57441;SDS011;43284;47.042;15.498;2023-04-01T17:48:58;1.25;;;0.70;;
57441;SDS011;43284;47.042;15.498;2023-04-01T17:51:45;13.18;;;4.25;;
57441;SDS011;43284;47.042;15.498;2023-04-01T17:59:36;7.80;;;3.28;;
57441;SDS011;43284;47.042;15.498;2023-04-01T18:02:20;6.88;;;3.00;;
57441;SDS011;43284;47.042;15.498;2023-04-01T18:08:11;5.47;;;2.05;;
57441;SDS011;43284;47.042;15.498;2023-04-01T18:10:42;4.00;;;1.80;;
57441;SDS011;43284;47.042;15.498;2023-04-01T18:24:47;5.57;;;2.10;;
57441;SDS011;43284;47.042;15.498;2023-04-01T18:27:30;9.00;;;3.83;;
57441;SDS011;43284;47.042;15.498;2023-04-01T18:30:13;2.20;;;1.20;;
57441;SDS011;43284;47.042;15.498;2023-04-01T18:52:28;4.07;;;2.10;;
57441;SDS011;43284;47.042;15.498;2023-04-01T19:00:25;3.00;;;1.83;;
57441;SDS011;43284;47.042;15.498;2023-04-01T19:05:41;2.53;;;1.48;;
57441;SDS011;43284;47.042;15.498;2023-04-01T19:08:26;4.00;;;1.60;;
57441;SDS011;43284;47.042;15.498;2023-04-01T19:11:04;4.45;;;1.67;;
57441;SDS011;43284;47.042;15.498;2023-04-01T19:16:40;2.13;;;1.00;;
57441;SDS011;43284;47.042;15.498;2023-04-01T19:19:36;1.83;;;1.15;;
57441;SDS011;43284;47.042;15.498;2023-04-01T19:22:21;1.95;;;1.10;;
57441;SDS011;43284;47.042;15.498;2023-04-01T19:36:13;1.77;;;1.13;;
57441;SDS011;43284;47.042;15.498;2023-04-01T19:38:52;3.05;;;1.27;;
57441;SDS011;43284;47.042;15.498;2023-04-01T19:54:59;3.00;;;1.45;;
57441;SDS011;43284;47.042;15.498;2023-04-01T20:06:41;3.92;;;1.83;;
57441;SDS011;43284;47.042;15.498;2023-04-01T20:11:59;5.13;;;2.15;;
57441;SDS011;43284;47.042;15.498;2023-04-01T20:14:43;4.82;;;2.30;;
57441;SDS011;43284;47.042;15.498;2023-04-01T20:17:17;9.95;;;4.63;;
57441;SDS011;43284;47.042;15.498;2023-04-01T20:25:15;5.32;;;3.25;;
57441;SDS011;43284;47.042;15.498;2023-04-01T20:27:50;8.50;;;3.55;;
57441;SDS011;43284;47.042;15.498;2023-04-01T20:38:52;4.63;;;2.03;;
57441;SDS011;43284;47.042;15.498;2023-04-01T20:58:27;3.25;;;1.67;;
57441;SDS011;43284;47.042;15.498;2023-04-01T21:03:53;2.40;;;1.55;;
57441;SDS011;43284;47.042;15.498;2023-04-01T21:06:31;5.50;;;1.58;;
57441;SDS011;43284;47.042;15.498;2023-04-01T21:09:06;2.58;;;1.23;;
57441;SDS011;43284;47.042;15.498;2023-04-01T21:17:08;2.33;;;1.08;;
57441;SDS011;43284;47.042;15.498;2023-04-01T21:19:50;4.40;;;1.75;;
57441;SDS011;43284;47.042;15.498;2023-04-01T21:22:49;8.50;;;2.25;;
57441;SDS011;43284;47.042;15.498;2023-04-01T21:28:46;7.85;;;2.50;;
57441;SDS011;43284;47.042;15.498;2023-04-01T21:31:33;10.88;;;4.28;;
57441;SDS011;43284;47.042;15.498;2023-04-01T21:34:40;4.43;;;1.45;;
57441;SDS011;43284;47.042;15.498;2023-04-01T21:55:27;2.47;;;1.13;;
57441;SDS011;43284;47.042;15.498;2023-04-01T22:06:14;2.20;;;1.17;;
57441;SDS011;43284;47.042;15.498;2023-04-01T22:11:23;2.25;;;1.20;;
57441;SDS011;43284;47.042;15.498;2023-04-01T22:16:59;1.52;;;1.20;;
57441;SDS011;43284;47.042;15.498;2023-04-01T22:19:56;1.80;;;1.05;;
57441;SDS011;43284;47.042;15.498;2023-04-01T22:22:25;2.47;;;0.90;;
57441;SDS011;43284;47.042;15.498;2023-04-01T22:25:14;2.25;;;1.13;;
57441;SDS011;43284;47.042;15.498;2023-04-01T22:27:51;1.58;;;0.85;;
57441;SDS011;43284;47.042;15.498;2023-04-01T22:30:22;1.30;;;0.80;;
57441;SDS011;43284;47.042;15.498;2023-04-01T22:32:50;0.95;;;0.90;;
57441;SDS011;43284;47.042;15.498;2023-04-01T22:35:31;0.98;;;0.70;;
57441;SDS011;43284;47.042;15.498;2023-04-01T22:38:13;1.30;;;0.75;;
57441;SDS011;43284;47.042;15.498;2023-04-01T22:41:02;2.13;;;0.80;;
57441;SDS011;43284;47.042;15.498;2023-04-01T22:43:35;1.58;;;0.70;;
57441;SDS011;43284;47.042;15.498;2023-04-01T22:51:20;0.93;;;0.60;;
57441;SDS011;43284;47.042;15.498;2023-04-01T22:56:33;1.08;;;0.70;;
57441;SDS011;43284;47.042;15.498;2023-04-01T23:01:44;1.30;;;0.70;;
57441;SDS011;43284;47.042;15.498;2023-04-01T23:04:16;0.57;;;0.57;;
57441;SDS011;43284;47.042;15.498;2023-04-01T23:06:50;3.47;;;1.70;;
57441;SDS011;43284;47.042;15.498;2023-04-01T23:12:02;1.08;;;0.80;;
57441;SDS011;43284;47.042;15.498;2023-04-01T23:33:15;1.60;;;0.60;;
57441;SDS011;43284;47.042;15.498;2023-04-01T23:35:51;1.00;;;0.60;;
57441;SDS011;43284;47.042;15.498;2023-04-01T23:38:21;0.90;;;0.60;;
57441;SDS011;43284;47.042;15.498;2023-04-01T23:40:50;1.25;;;0.82;;
57441;SDS011;43284;47.042;15.498;2023-04-01T23:43:24;1.33;;;0.68;;
57441;SDS011;43284;47.042;15.498;2023-04-01T23:45:56;0.93;;;0.50;;
57441;SDS011;43284;47.042;15.498;2023-04-01T23:48:58;0.65;;;0.52;;
57441;SDS011;43284;47.042;15.498;2023-04-01T23:51:18;1.00;;;0.80;;
57441;SDS011;43284;47.042;15.498;2023-04-01T23:53:48;1.90;;;0.65;;
57441;SDS011;43284;47.042;15.498;2023-04-01T23:56:33;1.30;;;0.80;;
57441;SDS011;43284;47.042;15.498;2023-04-01T23:59:03;1.33;;;0.60;;
